createdAt,value
2023-02-09T00:02:19.592Z,23.52
2023-02-09T00:04:47.429Z,23.10
2023-02-09T00:07:15.274Z,23.33
2023-02-09T00:09:44.868Z,23.45
2023-02-09T00:12:32.675Z,23.45
2023-02-09T00:15:01.901Z,22.73
2023-02-09T00:17:29.773Z,22.50
2023-02-09T00:19:57.675Z,24.10
2023-02-09T00:22:25.614Z,24.35
2023-02-09T00:24:54.451Z,22.70
2023-02-09T00:27:22.918Z,22.85
2023-02-09T00:29:50.732Z,22.63
2023-02-09T00:32:19.929Z,24.15
2023-02-09T00:34:47.792Z,22.55
2023-02-09T00:37:15.653Z,22.77
2023-02-09T00:39:43.490Z,22.10
2023-02-09T00:42:11.710Z,21.52
2023-02-09T00:44:41.598Z,23.85
2023-02-09T00:47:10.255Z,23.25
2023-02-09T00:49:40.433Z,25.40
2023-02-09T00:52:10.046Z,22.52
2023-02-09T00:54:38.172Z,21.33
2023-02-09T00:57:06.059Z,24.02
2023-02-09T00:59:35.289Z,24.90
2023-02-09T01:02:03.592Z,25.45
2023-02-09T01:04:31.475Z,23.33
2023-02-09T01:07:00.705Z,25.35
2023-02-09T01:09:28.612Z,24.00
2023-02-09T01:11:56.453Z,25.70
2023-02-09T01:14:24.318Z,26.17
2023-02-09T01:16:52.417Z,23.80
2023-02-09T01:19:20.511Z,24.95
2023-02-09T01:21:49.747Z,23.35
2023-02-09T01:24:18.968Z,25.05
2023-02-09T01:26:46.769Z,24.38
2023-02-09T01:29:15.680Z,25.23
2023-02-09T01:31:44.341Z,24.13
2023-02-09T01:34:14.129Z,24.02
2023-02-09T01:36:41.993Z,26.02
2023-02-09T01:39:11.277Z,24.73
2023-02-09T01:41:41.155Z,26.48
2023-02-09T01:44:47.827Z,26.00
2023-02-09T01:47:16.061Z,25.02
2023-02-09T01:49:45.203Z,26.33
2023-02-09T01:52:16.046Z,25.52
2023-02-09T01:54:47.057Z,26.92
2023-02-09T01:57:21.687Z,24.58
2023-02-09T01:59:53.842Z,26.27
2023-02-09T02:02:23.336Z,24.23
2023-02-09T02:04:52.240Z,24.48
2023-02-09T02:07:26.226Z,26.48
2023-02-09T02:09:55.112Z,28.35
2023-02-09T02:12:25.000Z,24.83
2023-02-09T02:14:52.818Z,26.15
2023-02-09T02:17:31.359Z,26.17
2023-02-09T02:20:24.217Z,24.75
2023-02-09T02:23:03.980Z,24.17
2023-02-09T02:26:11.417Z,25.38
2023-02-09T02:29:13.061Z,27.85
2023-02-09T02:32:02.872Z,27.83
2023-02-09T02:34:42.171Z,25.80
2023-02-09T02:37:22.055Z,27.08
2023-02-09T02:39:55.620Z,27.42
2023-02-09T02:42:45.554Z,27.40
2023-02-09T02:45:19.751Z,28.98
2023-02-09T02:47:54.802Z,27.33
2023-02-09T02:50:27.156Z,28.85
2023-02-09T02:52:59.414Z,27.42
2023-02-09T02:55:31.415Z,27.58
2023-02-09T02:58:04.455Z,27.70
2023-02-09T03:00:37.677Z,26.83
2023-02-09T03:03:12.103Z,26.92
2023-02-09T03:05:40.377Z,26.25
2023-02-09T03:08:08.275Z,25.98
2023-02-09T03:10:38.682Z,26.63
2023-02-09T03:13:17.919Z,27.20
2023-02-09T03:15:55.997Z,26.02
2023-02-09T03:18:32.498Z,26.45
2023-02-09T03:21:05.872Z,26.60
2023-02-09T03:23:39.058Z,27.88
2023-02-09T03:26:11.061Z,27.75
2023-02-09T03:28:42.253Z,29.67
2023-02-09T03:31:10.587Z,29.77
2023-02-09T03:33:40.776Z,29.83
2023-02-09T03:36:13.808Z,26.10
2023-02-09T03:38:41.745Z,28.00
2023-02-09T03:41:09.593Z,27.05
2023-02-09T03:43:54.877Z,27.30
2023-02-09T03:46:22.934Z,28.30
2023-02-09T03:48:52.224Z,26.48
2023-02-09T03:51:20.119Z,28.33
2023-02-09T03:53:48.128Z,28.35
2023-02-09T03:56:15.985Z,27.05
2023-02-09T03:58:43.828Z,28.75
2023-02-09T04:01:12.386Z,27.05
2023-02-09T04:03:40.744Z,30.25
2023-02-09T04:06:10.880Z,28.05
2023-02-09T04:08:39.063Z,27.85
2023-02-09T04:11:06.988Z,28.13
2023-02-09T04:13:34.809Z,28.67
2023-02-09T04:16:02.729Z,30.25
2023-02-09T04:18:30.608Z,27.42
2023-02-09T04:20:58.514Z,27.45
2023-02-09T04:23:27.824Z,29.98
2023-02-09T04:25:55.662Z,27.52
2023-02-09T04:28:23.572Z,29.80
2023-02-09T04:30:54.728Z,29.50
2023-02-09T04:33:23.822Z,28.60
2023-02-09T04:35:52.439Z,29.23
2023-02-09T04:38:21.862Z,30.38
2023-02-09T04:40:53.598Z,30.75
2023-02-09T04:43:21.534Z,31.50
2023-02-09T04:45:49.496Z,32.00
2023-02-09T04:48:19.489Z,32.20
2023-02-09T04:50:47.827Z,29.35
2023-02-09T04:53:16.335Z,30.35
2023-02-09T04:55:46.155Z,33.17
2023-02-09T04:58:35.509Z,30.80
2023-02-09T05:01:04.578Z,30.38
2023-02-09T05:03:32.567Z,31.60
2023-02-09T05:06:02.723Z,30.40
2023-02-09T05:08:31.115Z,30.60
2023-02-09T05:10:59.345Z,30.50
2023-02-09T05:13:28.864Z,30.90
2023-02-09T05:15:56.682Z,33.15
2023-02-09T05:18:25.668Z,32.55
2023-02-09T05:20:53.948Z,32.60
2023-02-09T05:23:21.803Z,31.73
2023-02-09T05:25:49.633Z,33.17
2023-02-09T05:28:17.525Z,34.03
2023-02-09T05:30:48.824Z,32.70
2023-02-09T05:33:16.876Z,32.70
2023-02-09T05:35:44.686Z,32.45
2023-02-09T05:38:12.529Z,33.50
2023-02-09T05:40:40.402Z,33.97
2023-02-09T05:43:09.318Z,31.65
2023-02-09T05:45:37.247Z,32.78
2023-02-09T05:48:06.916Z,34.15
2023-02-09T05:50:35.690Z,32.95
2023-02-09T05:53:03.623Z,33.47
2023-02-09T05:55:31.476Z,33.95
2023-02-09T05:57:59.369Z,34.05
2023-02-09T06:00:29.683Z,34.97
2023-02-09T06:02:58.574Z,34.97
2023-02-09T06:05:29.917Z,35.00
2023-02-09T06:07:57.975Z,32.22
2023-02-09T06:10:25.829Z,35.72
2023-02-09T06:12:53.930Z,35.90
2023-02-09T06:15:22.080Z,33.40
2023-02-09T06:17:50.001Z,34.25
2023-02-09T06:20:18.082Z,34.40
2023-02-09T06:22:47.319Z,33.65
2023-02-09T06:25:15.203Z,35.53
2023-02-09T06:27:43.070Z,35.17
2023-02-09T06:30:12.392Z,37.30
2023-02-09T06:32:40.340Z,35.90
2023-02-09T06:35:08.382Z,37.25
2023-02-09T06:37:36.632Z,39.25
2023-02-09T06:40:06.548Z,38.08
2023-02-09T06:42:44.549Z,37.45
2023-02-09T06:45:13.238Z,35.17
2023-02-09T06:47:42.655Z,35.97
2023-02-09T06:50:11.309Z,34.50
2023-02-09T06:52:39.528Z,35.25
2023-02-09T06:55:09.502Z,37.38
2023-02-09T06:57:37.503Z,37.33
2023-02-09T07:00:07.377Z,36.50
2023-02-09T07:02:35.383Z,35.35
2023-02-09T07:05:03.329Z,35.25
2023-02-09T07:07:31.191Z,37.97
2023-02-09T07:09:59.032Z,33.92
2023-02-09T07:12:28.301Z,35.50
2023-02-09T07:14:56.150Z,35.42
2023-02-09T07:17:23.993Z,37.60
2023-02-09T07:19:51.832Z,36.78
2023-02-09T07:22:19.715Z,35.42
2023-02-09T07:24:47.560Z,35.13
2023-02-09T07:27:15.899Z,35.83
2023-02-09T07:29:45.263Z,37.97
2023-02-09T07:32:13.376Z,35.47
2023-02-09T07:34:41.454Z,36.75
2023-02-09T07:37:09.282Z,35.60
2023-02-09T07:39:37.193Z,36.08
2023-02-09T07:42:05.419Z,35.58
2023-02-09T07:44:33.271Z,34.45
2023-02-09T07:47:02.479Z,35.28
2023-02-09T07:49:30.312Z,36.47
2023-02-09T07:51:58.147Z,32.97
2023-02-09T07:54:26.002Z,33.92
2023-02-09T07:56:56.431Z,34.28
2023-02-09T07:59:24.582Z,34.95
2023-02-09T08:01:52.523Z,34.30
2023-02-09T08:04:22.781Z,32.60
2023-02-09T08:06:51.929Z,34.70
2023-02-09T08:09:19.790Z,33.03
2023-02-09T08:11:51.009Z,33.45
2023-02-09T08:14:21.855Z,35.40
2023-02-09T08:16:51.191Z,33.17
2023-02-09T08:19:23.782Z,34.10
2023-02-09T08:21:52.268Z,35.15
2023-02-09T08:24:21.620Z,36.50
2023-02-09T08:26:49.567Z,35.22
2023-02-09T08:29:17.476Z,35.03
2023-02-09T08:31:45.482Z,30.08
2023-02-09T08:34:13.376Z,32.58
2023-02-09T08:36:42.577Z,33.47
2023-02-09T08:39:10.787Z,32.05
2023-02-09T08:41:39.023Z,30.63
2023-02-09T08:44:06.963Z,31.42
2023-02-09T08:46:36.604Z,28.63
2023-02-09T08:49:04.652Z,30.60
2023-02-09T08:51:32.644Z,27.85
2023-02-09T08:54:01.883Z,30.27
2023-02-09T08:56:29.702Z,30.35
2023-02-09T08:58:57.533Z,30.33
2023-02-09T09:01:25.387Z,31.58
2023-02-09T09:03:53.364Z,28.15
2023-02-09T09:06:22.092Z,30.13
2023-02-09T09:08:51.539Z,28.60
2023-02-09T09:11:20.818Z,29.15
2023-02-09T09:13:48.987Z,27.80
2023-02-09T09:16:17.978Z,26.85
2023-02-09T09:18:46.304Z,28.33
2023-02-09T09:21:15.955Z,28.58
2023-02-09T09:23:44.140Z,27.42
2023-02-09T09:26:12.213Z,27.85
2023-02-09T09:28:41.410Z,27.83
2023-02-09T09:31:10.082Z,27.35
2023-02-09T09:33:38.660Z,25.67
2023-02-09T09:36:07.659Z,27.67
2023-02-09T09:38:39.329Z,25.50
2023-02-09T09:41:17.795Z,27.83
2023-02-09T09:43:47.072Z,25.52
2023-02-09T09:46:20.784Z,27.35
2023-02-09T09:48:51.605Z,23.40
2023-02-09T09:51:26.752Z,25.90
2023-02-09T09:53:57.506Z,26.10
2023-02-09T09:56:27.280Z,25.85
2023-02-09T09:58:56.640Z,25.05
2023-02-09T10:01:28.512Z,24.67
2023-02-09T10:03:59.376Z,25.35
2023-02-09T10:06:34.332Z,23.73
2023-02-09T10:09:05.982Z,23.00
2023-02-09T10:11:39.081Z,25.08
2023-02-09T10:14:11.431Z,22.58
2023-02-09T10:16:39.494Z,22.77
2023-02-09T10:19:18.599Z,25.00
2023-02-09T10:21:46.489Z,23.38
2023-02-09T10:24:17.057Z,22.67
2023-02-09T10:26:44.949Z,23.90
2023-02-09T10:29:26.857Z,22.20
2023-02-09T10:31:58.172Z,22.10
2023-02-09T10:34:32.605Z,22.40
2023-02-09T10:37:22.910Z,20.40
2023-02-09T10:39:59.768Z,20.60
2023-02-09T10:42:31.158Z,21.02
2023-02-09T10:45:07.999Z,20.70
2023-02-09T10:47:35.870Z,20.50
2023-02-09T10:50:17.077Z,21.38
2023-02-09T10:52:56.120Z,21.15
2023-02-09T10:55:27.830Z,19.50
2023-02-09T10:58:13.338Z,19.55
2023-02-09T11:00:50.662Z,18.58
2023-02-09T11:03:20.594Z,19.50
2023-02-09T11:05:58.221Z,20.83
2023-02-09T11:08:38.347Z,21.00
2023-02-09T11:11:09.608Z,21.23
2023-02-09T11:13:38.711Z,22.00
2023-02-09T11:16:21.855Z,22.23
2023-02-09T11:18:54.082Z,22.20
2023-02-09T11:21:30.479Z,23.08
2023-02-09T11:24:04.140Z,21.90
2023-02-09T11:26:39.642Z,21.50
2023-02-09T11:29:17.729Z,21.02
2023-02-09T11:34:42.754Z,21.08
2023-02-09T11:37:24.950Z,22.08
2023-02-09T11:39:58.408Z,20.77
2023-02-09T11:42:47.311Z,21.38
2023-02-09T11:45:21.390Z,21.58
2023-02-09T11:48:01.584Z,21.50
2023-02-09T11:50:32.660Z,20.85
2023-02-09T11:53:05.134Z,20.85
2023-02-09T11:55:37.908Z,20.45
2023-02-09T11:58:26.277Z,19.85
2023-02-09T12:01:14.340Z,20.20
2023-02-09T12:03:50.296Z,19.42
2023-02-09T12:06:22.834Z,19.77
2023-02-09T12:09:13.771Z,20.42
2023-02-09T12:11:51.083Z,20.00
2023-02-09T12:14:31.316Z,19.50
2023-02-09T12:17:08.901Z,20.08
2023-02-09T12:19:42.329Z,19.50
2023-02-09T12:22:46.438Z,18.67
2023-02-09T12:25:22.004Z,18.85
2023-02-09T12:28:12.582Z,18.67
2023-02-09T12:31:08.821Z,18.95
2023-02-09T12:33:39.323Z,20.33
2023-02-09T12:36:29.324Z,19.20
2023-02-09T12:39:05.235Z,17.83
2023-02-09T12:42:12.296Z,17.40
2023-02-09T12:44:55.691Z,16.13
2023-02-09T12:47:46.655Z,16.65
2023-02-09T12:50:27.987Z,16.92
2023-02-09T12:53:30.948Z,16.90
2023-02-09T12:56:00.722Z,17.10
2023-02-09T12:58:40.628Z,15.10
2023-02-09T13:01:09.581Z,15.30
2023-02-09T13:03:44.981Z,15.15
2023-02-09T13:06:28.292Z,15.05
2023-02-09T13:09:00.890Z,15.23
2023-02-09T13:11:41.408Z,14.68
2023-02-09T13:14:14.877Z,15.20
2023-02-09T13:17:17.645Z,15.38
2023-02-09T13:20:15.673Z,16.33
2023-02-09T13:23:02.221Z,16.75
2023-02-09T13:25:35.439Z,15.80
2023-02-09T13:28:10.757Z,17.50
2023-02-09T13:30:38.732Z,16.98
2023-02-09T13:33:29.011Z,16.85
2023-02-09T13:36:22.968Z,16.70
2023-02-09T13:38:52.792Z,17.10
2023-02-09T13:41:35.514Z,17.13
2023-02-09T13:44:03.530Z,17.80
2023-02-09T13:46:35.059Z,17.85
2023-02-09T13:49:13.116Z,18.10
2023-02-09T13:54:08.755Z,18.80
2023-02-09T13:56:40.407Z,18.27
2023-02-09T13:59:08.366Z,18.10
2023-02-09T14:01:38.441Z,20.42
2023-02-09T14:04:12.234Z,19.02
2023-02-09T14:06:44.652Z,19.88
2023-02-09T14:09:20.042Z,19.40
2023-02-09T14:11:52.872Z,21.40
2023-02-09T14:14:26.029Z,19.85
2023-02-09T14:17:24.336Z,21.85
2023-02-09T14:19:54.062Z,21.08
2023-02-09T14:22:34.571Z,21.63
2023-02-09T14:25:17.908Z,21.15
2023-02-09T14:27:49.351Z,21.30
2023-02-09T14:30:19.700Z,21.67
2023-02-09T14:32:51.917Z,21.25
2023-02-09T14:35:22.598Z,21.77
2023-02-09T14:37:51.560Z,23.25
2023-02-09T14:40:25.910Z,23.20
2023-02-09T14:43:00.350Z,24.23
2023-02-09T14:45:31.469Z,22.98
2023-02-09T14:47:59.326Z,22.50
2023-02-09T14:50:27.156Z,25.15
2023-02-09T14:53:05.689Z,22.05
2023-02-09T14:55:39.994Z,22.90
2023-02-09T14:58:19.000Z,22.13
2023-02-09T15:00:46.869Z,22.75
2023-02-09T15:03:14.812Z,22.45
2023-02-09T15:05:43.026Z,21.75
2023-02-09T15:08:15.475Z,22.02
2023-02-09T15:10:46.357Z,21.75
2023-02-09T15:13:16.319Z,20.58
2023-02-09T15:15:45.110Z,20.75
2023-02-09T15:18:18.338Z,21.75
2023-02-09T15:20:46.162Z,22.60
2023-02-09T15:23:14.721Z,21.80
2023-02-09T15:25:43.517Z,21.75
2023-02-09T15:28:24.651Z,22.02
2023-02-09T15:30:52.583Z,22.02
2023-02-09T15:33:20.488Z,20.85
2023-02-09T15:35:48.983Z,20.55
2023-02-09T15:38:18.319Z,21.58
2023-02-09T15:41:05.221Z,23.15
2023-02-09T15:43:53.021Z,23.20
2023-02-09T15:46:38.564Z,22.42
2023-02-09T15:49:07.286Z,22.20
2023-02-09T15:51:37.958Z,23.23
2023-02-09T15:54:11.610Z,20.40
2023-02-09T15:56:40.142Z,21.80
2023-02-09T15:59:16.940Z,23.38
2023-02-09T16:01:44.837Z,21.05
2023-02-09T16:04:14.250Z,24.25
2023-02-09T16:06:49.954Z,21.83
2023-02-09T16:09:19.943Z,24.60
2023-02-09T16:11:48.335Z,23.08
2023-02-09T16:14:20.496Z,23.50
2023-02-09T16:16:48.698Z,26.58
2023-02-09T16:19:17.354Z,25.85
2023-02-09T16:21:47.543Z,24.00
2023-02-09T16:24:22.404Z,24.58
2023-02-09T16:26:50.297Z,27.00
2023-02-09T16:29:19.700Z,25.38
2023-02-09T16:31:47.820Z,26.25
2023-02-09T16:34:16.119Z,27.38
2023-02-09T16:36:45.065Z,27.17
2023-02-09T16:39:19.060Z,27.80
2023-02-09T16:41:53.742Z,26.90
2023-02-09T16:44:25.152Z,28.20
2023-02-09T16:46:55.207Z,27.98
2023-02-09T16:49:33.956Z,26.02
2023-02-09T16:52:06.107Z,28.27
2023-02-09T16:54:42.404Z,27.75
2023-02-09T16:57:14.365Z,28.77
2023-02-09T16:59:43.668Z,27.30
2023-02-09T17:02:31.745Z,27.63
2023-02-09T17:05:00.993Z,31.30
2023-02-09T17:07:34.259Z,28.95
2023-02-09T17:10:15.232Z,26.63
2023-02-09T17:12:43.192Z,29.67
2023-02-09T17:15:28.523Z,29.88
2023-02-09T17:18:02.121Z,31.90
2023-02-09T17:20:36.323Z,28.40
2023-02-09T17:23:04.691Z,29.08
2023-02-09T17:25:33.168Z,30.35
2023-02-09T17:28:01.152Z,29.65
2023-02-09T17:30:33.727Z,30.38
2023-02-09T17:33:03.563Z,30.55
2023-02-09T17:36:00.918Z,29.17
2023-02-09T17:38:24.321Z,29.45
2023-02-09T17:40:53.082Z,29.08
2023-02-09T17:43:21.717Z,29.67
2023-02-09T17:45:51.252Z,31.38
2023-02-09T17:48:19.659Z,29.05
2023-02-09T17:50:49.249Z,32.80
2023-02-09T17:53:20.189Z,33.15
2023-02-09T17:55:48.863Z,34.90
2023-02-09T17:58:17.691Z,33.20
2023-02-09T18:00:46.530Z,34.70
2023-02-09T18:03:17.776Z,37.17
2023-02-09T18:05:48.182Z,33.15
2023-02-09T18:08:16.113Z,34.30
2023-02-09T18:10:44.052Z,32.85
2023-02-09T18:13:17.566Z,34.72
2023-02-09T18:15:46.102Z,34.47
2023-02-09T18:18:15.497Z,32.35
2023-02-09T18:20:43.467Z,33.45
2023-02-09T18:23:15.827Z,34.03
2023-02-09T18:25:44.205Z,33.10
2023-02-09T18:28:16.594Z,33.85
2023-02-09T18:30:45.579Z,29.95
2023-02-09T18:33:15.895Z,32.35
2023-02-09T18:35:45.665Z,33.00
2023-02-09T18:38:15.768Z,32.40
2023-02-09T18:40:43.810Z,31.45
2023-02-09T18:43:14.544Z,32.92
2023-02-09T18:45:42.499Z,30.13
2023-02-09T18:48:11.631Z,31.55
2023-02-09T18:50:41.213Z,32.80
2023-02-09T18:53:09.461Z,30.38
2023-02-09T18:55:37.418Z,31.92
2023-02-09T18:58:06.851Z,31.13
2023-02-09T19:00:34.937Z,31.08
2023-02-09T19:03:03.201Z,33.05
2023-02-09T19:05:32.769Z,30.30
2023-02-09T19:08:02.216Z,31.10
2023-02-09T19:10:32.951Z,30.02
2023-02-09T19:13:02.378Z,29.25
2023-02-09T19:15:31.412Z,30.55
2023-02-09T19:17:59.666Z,30.33
2023-02-09T19:20:30.478Z,30.25
2023-02-09T19:22:58.382Z,30.27
2023-02-09T19:25:29.513Z,29.98
2023-02-09T19:27:57.426Z,31.45
2023-02-09T19:30:26.488Z,28.77
2023-02-09T19:32:57.480Z,32.03
2023-02-09T19:35:25.684Z,31.42
2023-02-09T19:37:54.831Z,33.85
2023-02-09T19:40:28.463Z,31.83
2023-02-09T19:42:58.119Z,31.73
2023-02-09T19:45:25.954Z,32.05
2023-02-09T19:47:53.766Z,31.67
2023-02-09T19:50:21.607Z,31.88
2023-02-09T19:52:50.291Z,32.40
2023-02-09T19:55:18.166Z,30.77
2023-02-09T19:57:45.977Z,30.77
2023-02-09T20:00:18.086Z,32.38
2023-02-09T20:02:46.711Z,30.70
2023-02-09T20:05:14.727Z,30.45
2023-02-09T20:07:43.009Z,30.27
2023-02-09T20:10:11.382Z,31.75
2023-02-09T20:12:39.313Z,33.00
2023-02-09T20:15:07.419Z,34.38
2023-02-09T20:17:36.697Z,33.42
2023-02-09T20:20:05.146Z,33.08
2023-02-09T20:22:34.626Z,32.65
2023-02-09T20:25:02.470Z,34.22
2023-02-09T20:27:30.336Z,32.33
2023-02-09T20:30:01.384Z,30.70
2023-02-09T20:32:29.305Z,31.20
2023-02-09T20:34:58.462Z,31.45
2023-02-09T20:37:26.324Z,32.85
2023-02-09T20:39:54.193Z,33.50
2023-02-09T20:42:39.450Z,32.90
2023-02-09T20:45:25.405Z,33.42
2023-02-09T20:47:53.281Z,30.27
2023-02-09T20:50:22.564Z,33.97
2023-02-09T20:52:50.399Z,33.58
2023-02-09T20:55:22.357Z,32.50
2023-02-09T20:57:50.465Z,34.33
2023-02-09T21:00:18.914Z,35.75
2023-02-09T21:02:46.818Z,33.13
2023-02-09T21:05:14.760Z,35.33
2023-02-09T21:07:43.980Z,34.35
2023-02-09T21:10:13.086Z,32.65
2023-02-09T21:12:40.921Z,33.58
2023-02-09T21:15:09.257Z,32.38
2023-02-09T21:17:37.125Z,34.47
2023-02-09T21:20:06.195Z,33.05
2023-02-09T21:22:34.053Z,35.70
2023-02-09T21:25:03.255Z,36.30
2023-02-09T21:27:32.714Z,38.70
2023-02-09T21:30:00.641Z,36.92
2023-02-09T21:32:28.959Z,38.72
2023-02-09T21:34:56.802Z,38.58
2023-02-09T21:37:24.647Z,37.95
2023-02-09T21:39:52.457Z,36.85
2023-02-09T21:42:28.523Z,35.80
2023-02-09T21:44:56.595Z,37.97
2023-02-09T21:47:26.794Z,39.42
2023-02-09T21:49:54.885Z,38.78
2023-02-09T21:52:22.748Z,38.38
2023-02-09T21:54:50.853Z,35.70
2023-02-09T21:57:19.163Z,34.28
2023-02-09T21:59:48.312Z,36.70
2023-02-09T22:02:17.788Z,33.67
2023-02-09T22:04:46.637Z,37.30
2023-02-09T22:07:15.609Z,34.22
2023-02-09T22:09:43.516Z,35.13
2023-02-09T22:12:11.355Z,36.55
2023-02-09T22:14:39.204Z,37.80
2023-02-09T22:17:08.417Z,36.97
2023-02-09T22:19:36.515Z,35.42
2023-02-09T22:22:04.721Z,35.25
2023-02-09T22:24:34.640Z,35.97
2023-02-09T22:27:03.191Z,35.78
2023-02-09T22:29:33.165Z,35.03
2023-02-09T22:32:01.007Z,35.55
2023-02-09T22:34:30.230Z,35.33
2023-02-09T22:36:58.147Z,36.25
2023-02-09T22:39:25.988Z,32.20
2023-02-09T22:41:57.972Z,35.85
2023-02-09T22:44:27.897Z,34.30
2023-02-09T22:46:55.750Z,34.80
2023-02-09T22:49:23.697Z,34.60
2023-02-09T22:51:52.845Z,32.17
2023-02-09T22:54:21.753Z,33.55
2023-02-09T22:56:49.655Z,32.42
2023-02-09T22:59:17.534Z,31.73
2023-02-09T23:01:46.192Z,31.30
2023-02-09T23:04:14.474Z,33.42
2023-02-09T23:06:42.382Z,32.85
2023-02-09T23:09:14.264Z,33.83
2023-02-09T23:11:42.442Z,31.45
2023-02-09T23:14:12.536Z,31.90
2023-02-09T23:16:41.902Z,32.40
2023-02-09T23:19:12.786Z,32.08
2023-02-09T23:21:42.810Z,33.58
2023-02-09T23:24:13.486Z,31.73
2023-02-09T23:26:41.497Z,31.02
2023-02-09T23:29:12.796Z,30.75
2023-02-09T23:31:41.361Z,30.83
2023-02-09T23:34:12.776Z,31.70
2023-02-09T23:36:40.625Z,32.33
2023-02-09T23:39:08.489Z,32.60
2023-02-09T23:41:37.665Z,30.92
2023-02-09T23:44:05.805Z,33.03
2023-02-09T23:46:33.734Z,32.08
2023-02-09T23:49:01.784Z,30.15
2023-02-09T23:51:31.584Z,31.42
2023-02-09T23:54:00.972Z,32.15
2023-02-09T23:56:31.667Z,33.10
2023-02-09T23:59:00.905Z,33.67
